createdAt,value
2019-05-16T00:04:54.492Z,101612.02
2019-05-16T00:09:59.089Z,101602.55
2019-05-16T00:15:03.532Z,101592.60
2019-05-16T00:20:09.320Z,101578.05
2019-05-16T00:25:13.750Z,101573.48
2019-05-16T00:30:18.348Z,101572.37
2019-05-16T00:35:22.741Z,101558.22
2019-05-16T00:40:27.966Z,101551.94
2019-05-16T00:45:32.991Z,101547.73
2019-05-16T00:50:38.732Z,101543.02
2019-05-16T00:55:43.077Z,101538.84
2019-05-16T01:00:49.938Z,101532.66
2019-05-16T01:05:54.457Z,101516.84
2019-05-16T01:10:59.284Z,101515.44
2019-05-16T01:16:03.370Z,101504.45
2019-05-16T01:21:07.875Z,101492.66
2019-05-16T01:26:12.329Z,101492.29
2019-05-16T01:31:18.924Z,101474.23
2019-05-16T01:36:36.155Z,101474.68
2019-05-16T01:41:28.657Z,101465.06
2019-05-16T01:46:32.974Z,101455.36
2019-05-16T01:51:37.994Z,101450.70
2019-05-16T01:56:42.190Z,101442.84
2019-05-16T02:01:48.267Z,101431.47
2019-05-16T02:06:54.933Z,101427.63
2019-05-16T02:11:58.990Z,101413.86
2019-05-16T02:17:03.392Z,101403.97
2019-05-16T02:22:08.932Z,101391.95
2019-05-16T02:27:13.357Z,101375.71
2019-05-16T02:32:17.466Z,101363.25
2019-05-16T02:37:29.024Z,101361.91
2019-05-16T02:42:30.705Z,101351.03
2019-05-16T02:47:35.051Z,101350.11
2019-05-16T02:52:41.313Z,101351.16
2019-05-16T02:57:45.110Z,101345.88
2019-05-16T03:02:50.460Z,101347.90
2019-05-16T03:07:55.291Z,101339.59
2019-05-16T03:13:00.977Z,101344.70
2019-05-16T03:18:05.410Z,101340.23
2019-05-16T03:23:11.337Z,101331.44
2019-05-16T03:28:15.235Z,101319.57
2019-05-16T03:33:26.173Z,101314.73
2019-05-16T03:38:26.823Z,101310.82
2019-05-16T03:43:32.564Z,101302.98
2019-05-16T03:48:40.838Z,101296.37
2019-05-16T03:53:44.471Z,101291.33
2019-05-16T03:58:50.924Z,101292.48
2019-05-16T04:03:54.434Z,101285.20
2019-05-16T04:09:01.571Z,101287.09
2019-05-16T04:14:05.035Z,101278.09
2019-05-16T04:19:11.539Z,101272.11
2019-05-16T04:24:15.066Z,101264.42
2019-05-16T04:29:20.750Z,101262.11
2019-05-16T04:34:25.131Z,101258.95
2019-05-16T04:39:32.035Z,101257.95
2019-05-16T04:44:35.773Z,101254.19
2019-05-16T04:49:41.290Z,101250.44
2019-05-16T04:54:45.403Z,101244.48
2019-05-16T04:59:51.017Z,101240.48
2019-05-16T05:04:55.781Z,101239.48
2019-05-16T05:10:00.828Z,101236.11
2019-05-16T05:15:06.637Z,101233.66
2019-05-16T05:20:11.357Z,101233.64
2019-05-16T05:25:15.734Z,101224.09
2019-05-16T05:30:19.997Z,101222.59
2019-05-16T05:35:24.737Z,101217.36
2019-05-16T05:40:29.811Z,101220.09
2019-05-16T05:45:33.898Z,101227.84
2019-05-16T05:50:40.018Z,101236.95
2019-05-16T05:55:43.683Z,101230.41
2019-05-16T06:00:51.583Z,101213.30
2019-05-16T06:05:54.576Z,101220.55
2019-05-16T06:11:00.763Z,101213.20
2019-05-16T06:16:10.765Z,101206.20
2019-05-16T06:21:15.015Z,101206.16
2019-05-16T06:26:20.374Z,101204.55
2019-05-16T06:31:25.785Z,101202.87
2019-05-16T06:36:31.277Z,101196.29
2019-05-16T06:41:39.746Z,101190.72
2019-05-16T06:46:59.872Z,101192.72
2019-05-16T06:51:51.759Z,101200.30
2019-05-16T06:56:56.392Z,101205.50
2019-05-16T07:02:00.587Z,101191.30
2019-05-16T07:07:04.764Z,101188.27
2019-05-16T07:12:10.516Z,101188.04
2019-05-16T07:17:14.860Z,101174.41
2019-05-16T07:22:20.467Z,101169.05
2019-05-16T07:27:24.734Z,101174.67
2019-05-16T07:32:30.261Z,101171.78
2019-05-16T07:37:34.602Z,101176.49
2019-05-16T07:42:40.297Z,101168.89
2019-05-16T07:47:44.405Z,101164.23
2019-05-16T07:52:51.019Z,101153.66
2019-05-16T07:57:54.221Z,101160.84
2019-05-16T08:03:00.029Z,101148.95
2019-05-16T08:08:04.354Z,101154.84
2019-05-16T08:13:12.628Z,101151.91
2019-05-16T08:18:16.388Z,101148.33
2019-05-16T08:28:26.274Z,101154.20
2019-05-16T08:33:32.052Z,101144.08
2019-05-16T08:38:36.070Z,101136.58
2019-05-16T08:43:41.457Z,101131.09
2019-05-16T08:48:45.797Z,101131.59
2019-05-16T08:53:50.556Z,101128.37
2019-05-16T08:58:55.069Z,101120.17
2019-05-16T09:04:01.394Z,101123.84
2019-05-16T09:09:22.279Z,101127.05
2019-05-16T09:10:35.264Z,101138.41
2019-05-16T09:14:12.402Z,101122.98
2019-05-16T09:19:16.998Z,101117.80
2019-05-16T09:24:21.353Z,101115.53
2019-05-16T09:29:27.320Z,101111.66
2019-05-16T09:34:31.501Z,101105.70
2019-05-16T09:39:37.175Z,101098.08
2019-05-16T09:44:41.398Z,101088.48
2019-05-16T09:49:49.132Z,101092.77
2019-05-16T09:54:57.792Z,101090.06
2019-05-16T10:00:06.777Z,101096.25
2019-05-16T10:05:13.929Z,101098.81
2019-05-16T10:10:23.282Z,101088.27
2019-05-16T10:15:29.195Z,101085.31
2019-05-16T10:20:37.096Z,101079.88
2019-05-16T10:25:48.001Z,101077.69
2019-05-16T10:30:51.187Z,101085.53
2019-05-16T10:35:57.786Z,101087.84
2019-05-16T10:41:07.309Z,101087.57
2019-05-16T10:46:11.731Z,101080.92
2019-05-16T10:51:17.002Z,101052.27
2019-05-16T10:56:21.428Z,101048.62
2019-05-16T11:01:28.776Z,101048.62
2019-05-16T11:06:31.654Z,101053.16
2019-05-16T11:11:36.792Z,101054.17
2019-05-16T11:16:41.092Z,101046.28
2019-05-16T11:21:46.834Z,101058.52
2019-05-16T11:26:50.949Z,101052.98
2019-05-16T11:31:57.271Z,101054.27
2019-05-16T11:37:00.994Z,101051.73
2019-05-16T11:42:07.741Z,101048.20
2019-05-16T11:47:11.202Z,101049.17
2019-05-16T11:52:17.833Z,101051.71
2019-05-16T11:57:21.105Z,101065.59
2019-05-16T12:02:27.810Z,101047.22
2019-05-16T12:07:34.042Z,101041.93
2019-05-16T12:12:37.158Z,101038.25
2019-05-16T12:17:41.479Z,101027.86
2019-05-16T12:22:45.917Z,101040.91
2019-05-16T12:27:50.103Z,101043.27
2019-05-16T12:32:57.891Z,101044.25
2019-05-16T12:38:00.917Z,101034.23
2019-05-16T12:43:07.550Z,101040.42
2019-05-16T12:48:10.799Z,101037.75
2019-05-16T12:53:14.817Z,101041.10
2019-05-16T12:58:25.068Z,101047.97
2019-05-16T13:03:27.538Z,101043.58
2019-05-16T13:08:30.718Z,101040.38
2019-05-16T13:13:37.267Z,101042.26
2019-05-16T13:18:40.824Z,101036.54
2019-05-16T13:23:46.716Z,101036.56
2019-05-16T13:28:51.132Z,101034.36
2019-05-16T13:33:56.838Z,101031.88
2019-05-16T13:39:00.941Z,101022.69
2019-05-16T13:44:17.615Z,101026.00
2019-05-16T13:49:11.058Z,101019.47
2019-05-16T13:54:17.516Z,101015.27
2019-05-16T13:59:20.976Z,101008.55
2019-05-16T14:04:26.453Z,101005.21
2019-05-16T14:09:30.573Z,101002.28
2019-05-16T14:14:41.532Z,101007.48
2019-05-16T14:19:40.833Z,101001.11
2019-05-16T14:24:47.921Z,100998.58
2019-05-16T14:29:51.309Z,101000.22
2019-05-16T14:34:58.954Z,101005.06
2019-05-16T14:40:02.013Z,100997.70
2019-05-16T14:45:12.042Z,101001.42
2019-05-16T14:50:16.987Z,101005.75
2019-05-16T14:55:20.865Z,101005.61
2019-05-16T15:00:27.536Z,100995.88
2019-05-16T15:05:30.722Z,100990.01
2019-05-16T15:10:34.848Z,100985.59
2019-05-16T15:15:39.160Z,100984.78
2019-05-16T15:20:43.311Z,100983.27
2019-05-16T15:25:47.800Z,100990.09
2019-05-16T15:30:51.842Z,100984.12
2019-05-16T15:35:57.828Z,100986.75
2019-05-16T15:41:02.235Z,100988.37
2019-05-16T15:46:08.003Z,100992.67
2019-05-16T15:51:12.618Z,100996.57
2019-05-16T15:56:17.795Z,100995.75
2019-05-16T16:01:22.044Z,100986.97
2019-05-16T16:06:27.442Z,100994.70
2019-05-16T16:11:31.848Z,100995.03
2019-05-16T16:16:35.965Z,100995.54
2019-05-16T16:21:40.045Z,100995.39
2019-05-16T16:26:44.203Z,100997.59
2019-05-16T16:31:48.276Z,101003.63
2019-05-16T16:36:52.364Z,100998.09
2019-05-16T16:41:56.884Z,101000.92
2019-05-16T16:47:01.157Z,100998.59
2019-05-16T16:52:07.531Z,101009.85
2019-05-16T16:57:10.955Z,101010.90
2019-05-16T17:02:17.142Z,101013.41
2019-05-16T17:07:21.007Z,101003.88
2019-05-16T17:12:25.156Z,101016.94
2019-05-16T17:17:29.285Z,101016.27
2019-05-16T17:22:33.321Z,101017.77
2019-05-16T17:27:37.947Z,101006.69
2019-05-16T17:32:42.229Z,101010.59
2019-05-16T17:37:46.754Z,101008.89
2019-05-16T17:42:50.883Z,101009.72
2019-05-16T17:47:57.072Z,101012.41
2019-05-16T17:53:00.649Z,101018.95
2019-05-16T17:58:08.403Z,101020.13
2019-05-16T18:03:11.007Z,101018.62
2019-05-16T18:08:16.801Z,101020.33
2019-05-16T18:13:20.820Z,101024.98
2019-05-16T18:18:26.895Z,101022.50
2019-05-16T18:23:30.661Z,101030.02
2019-05-16T18:28:36.297Z,101022.18
2019-05-16T18:33:40.796Z,101023.33
2019-05-16T18:38:46.685Z,101027.01
2019-05-16T18:43:50.943Z,101019.66
2019-05-16T18:48:56.502Z,101010.92
2019-05-16T18:54:00.773Z,100995.19
2019-05-16T18:59:06.204Z,100991.33
2019-05-16T19:04:17.586Z,100995.84
2019-05-16T19:09:21.818Z,100995.52
2019-05-16T19:14:27.153Z,100994.83
2019-05-16T19:19:31.675Z,100990.44
2019-05-16T19:24:37.055Z,100988.44
2019-05-16T19:29:41.217Z,100988.95
2019-05-16T19:34:49.152Z,100986.92
2019-05-16T19:39:52.838Z,100988.77
2019-05-16T19:44:57.354Z,100983.95
2019-05-16T19:50:02.189Z,100988.42
2019-05-16T19:55:07.186Z,100994.65
2019-05-16T20:00:11.976Z,100988.80
2019-05-16T20:05:17.325Z,100977.39
2019-05-16T20:10:21.881Z,100986.93
2019-05-16T20:15:27.078Z,100979.80
2019-05-16T20:20:31.499Z,100975.11
2019-05-16T20:25:36.810Z,100976.95
2019-05-16T20:30:41.765Z,100976.45
2019-05-16T20:35:46.840Z,100974.94
2019-05-16T20:40:51.027Z,100976.75
2019-05-16T20:45:56.763Z,100985.13
2019-05-16T20:51:02.387Z,100979.91
2019-05-16T20:56:09.559Z,100985.42
2019-05-16T21:01:17.199Z,100981.25
2019-05-16T21:06:20.983Z,100977.23
2019-05-16T21:11:26.483Z,100974.36
2019-05-16T21:16:30.632Z,100974.30
2019-05-16T21:21:36.759Z,100971.45
2019-05-16T21:26:42.893Z,100974.84
2019-05-16T21:31:48.668Z,100970.58
2019-05-16T21:37:00.918Z,100969.58
2019-05-16T21:42:02.817Z,100977.97
2019-05-16T21:47:07.341Z,100979.76
2019-05-16T21:52:11.404Z,100981.44
2019-05-16T21:57:19.708Z,100981.44
2019-05-16T22:02:21.843Z,100974.47
2019-05-16T22:07:33.138Z,100978.19
2019-05-16T22:12:31.923Z,100972.91
2019-05-16T22:17:36.601Z,100968.86
2019-05-16T22:22:43.307Z,100972.06
2019-05-16T22:27:48.915Z,100967.35
2019-05-16T22:32:53.393Z,100964.11
2019-05-16T22:37:59.443Z,100962.42
2019-05-16T22:43:03.378Z,100966.59
2019-05-16T22:48:07.450Z,100953.01
2019-05-16T22:53:11.529Z,100961.54
2019-05-16T22:58:16.403Z,100956.25
2019-05-16T23:03:20.852Z,100955.17
2019-05-16T23:08:27.036Z,100961.48
2019-05-16T23:13:30.755Z,100956.66
2019-05-16T23:18:37.267Z,100955.94
2019-05-16T23:23:40.472Z,100953.55
2019-05-16T23:28:44.609Z,100955.17
2019-05-16T23:33:48.739Z,100958.87
2019-05-16T23:38:52.861Z,100949.98
2019-05-16T23:43:56.890Z,100951.98
2019-05-16T23:49:00.917Z,100948.71
2019-05-16T23:54:06.736Z,100942.31
2019-05-16T23:59:10.719Z,100945.63
